sensor_id;sensor_type;location;lat;lon;timestamp;pressure;altitude;pressure_sealevel;temperature;humidity
57248;BME280;55809;46.618;10.764;2023-07-08T00:00:24;93630.97;;;18.59;69.49
57248;BME280;55809;46.618;10.764;2023-07-08T00:02:52;93637.63;;;18.58;70.22
57248;BME280;55809;46.618;10.764;2023-07-08T00:05:21;93642.09;;;18.52;70.43
57248;BME280;55809;46.618;10.764;2023-07-08T00:07:48;93642.63;;;18.47;70.86
57248;BME280;55809;46.618;10.764;2023-07-08T00:10:20;93635.63;;;18.46;70.92
57248;BME280;55809;46.618;10.764;2023-07-08T00:12:50;93638.78;;;18.44;70.82
57248;BME280;55809;46.618;10.764;2023-07-08T00:15:18;93641.16;;;18.42;70.38
57248;BME280;55809;46.618;10.764;2023-07-08T00:17:47;93638.53;;;18.39;70.45
57248;BME280;55809;46.618;10.764;2023-07-08T00:20:17;93635.47;;;18.37;70.46
57248;BME280;55809;46.618;10.764;2023-07-08T00:22:44;93633.25;;;18.32;70.09
57248;BME280;55809;46.618;10.764;2023-07-08T00:25:15;93639.59;;;18.28;70.35
57248;BME280;55809;46.618;10.764;2023-07-08T00:27:44;93644.88;;;18.19;70.95
57248;BME280;55809;46.618;10.764;2023-07-08T00:30:21;93646.63;;;18.13;71.35
57248;BME280;55809;46.618;10.764;2023-07-08T00:32:48;93639.88;;;18.01;71.81
57248;BME280;55809;46.618;10.764;2023-07-08T00:35:20;93645.34;;;18.01;71.90
57248;BME280;55809;46.618;10.764;2023-07-08T00:37:47;93655.59;;;17.97;72.32
57248;BME280;55809;46.618;10.764;2023-07-08T00:40:19;93650.91;;;17.98;72.70
57248;BME280;55809;46.618;10.764;2023-07-08T00:42:48;93662.94;;;18.00;72.14
57248;BME280;55809;46.618;10.764;2023-07-08T00:45:37;93663.03;;;17.97;72.38
57248;BME280;55809;46.618;10.764;2023-07-08T00:48:12;93639.22;;;17.81;72.26
57248;BME280;55809;46.618;10.764;2023-07-08T00:50:42;93658.84;;;17.92;72.10
57248;BME280;55809;46.618;10.764;2023-07-08T00:53:26;93667.19;;;17.85;72.19
57248;BME280;55809;46.618;10.764;2023-07-08T00:55:56;93677.69;;;17.87;72.57
57248;BME280;55809;46.618;10.764;2023-07-08T00:58:25;93679.56;;;17.90;72.44
57248;BME280;55809;46.618;10.764;2023-07-08T01:00:56;93627.50;;;17.48;72.68
57248;BME280;55809;46.618;10.764;2023-07-08T01:03:24;93690.34;;;17.80;72.59
57248;BME280;55809;46.618;10.764;2023-07-08T01:05:53;93674.75;;;17.61;72.56
57248;BME280;55809;46.618;10.764;2023-07-08T01:08:25;93658.69;;;17.47;72.40
57248;BME280;55809;46.618;10.764;2023-07-08T01:10:58;93693.25;;;17.70;72.86
57248;BME280;55809;46.618;10.764;2023-07-08T01:13:29;93690.53;;;17.70;73.52
57248;BME280;55809;46.618;10.764;2023-07-08T01:16:01;93675.16;;;17.59;73.59
57248;BME280;55809;46.618;10.764;2023-07-08T01:18:29;93710.44;;;17.70;73.75
57248;BME280;55809;46.618;10.764;2023-07-08T01:21:01;93677.31;;;17.52;73.26
57248;BME280;55809;46.618;10.764;2023-07-08T01:23:31;93690.97;;;17.68;73.15
57248;BME280;55809;46.618;10.764;2023-07-08T01:25:59;93695.31;;;17.66;73.33
57248;BME280;55809;46.618;10.764;2023-07-08T01:28:27;93692.66;;;17.62;73.25
57248;BME280;55809;46.618;10.764;2023-07-08T01:30:55;93690.09;;;17.55;73.34
57248;BME280;55809;46.618;10.764;2023-07-08T01:33:21;93692.06;;;17.54;73.20
57248;BME280;55809;46.618;10.764;2023-07-08T01:35:49;93688.97;;;17.52;73.43
57248;BME280;55809;46.618;10.764;2023-07-08T01:38:20;93656.63;;;17.34;73.62
57248;BME280;55809;46.618;10.764;2023-07-08T01:40:51;93673.38;;;17.53;73.46
57248;BME280;55809;46.618;10.764;2023-07-08T01:43:19;93672.78;;;17.45;73.69
57248;BME280;55809;46.618;10.764;2023-07-08T01:45:47;93675.91;;;17.44;73.89
57248;BME280;55809;46.618;10.764;2023-07-08T01:48:17;93670.81;;;17.46;73.79
57248;BME280;55809;46.618;10.764;2023-07-08T01:50:47;93660.16;;;17.15;74.37
57248;BME280;55809;46.618;10.764;2023-07-08T01:53:21;93644.09;;;17.01;74.66
57248;BME280;55809;46.618;10.764;2023-07-08T01:55:50;93664.78;;;17.18;74.72
57248;BME280;55809;46.618;10.764;2023-07-08T01:58:17;93640.50;;;17.04;74.74
57248;BME280;55809;46.618;10.764;2023-07-08T02:00:45;93668.41;;;17.31;74.86
57248;BME280;55809;46.618;10.764;2023-07-08T02:03:27;93654.16;;;17.40;74.51
57248;BME280;55809;46.618;10.764;2023-07-08T02:06:22;93672.34;;;17.47;73.69
57248;BME280;55809;46.618;10.764;2023-07-08T02:08:54;93633.41;;;17.26;73.28
57248;BME280;55809;46.618;10.764;2023-07-08T02:11:59;93653.22;;;17.47;73.23
57248;BME280;55809;46.618;10.764;2023-07-08T02:14:27;93656.22;;;17.52;73.50
57248;BME280;55809;46.618;10.764;2023-07-08T02:16:56;93625.69;;;17.41;73.59
57248;BME280;55809;46.618;10.764;2023-07-08T02:22:58;93651.47;;;17.73;72.58
57248;BME280;55809;46.618;10.764;2023-07-08T02:26:10;93642.69;;;17.65;72.15
57248;BME280;55809;46.618;10.764;2023-07-08T02:28:57;93641.84;;;17.68;72.10
57248;BME280;55809;46.618;10.764;2023-07-08T02:31:35;93607.25;;;17.45;71.70
57248;BME280;55809;46.618;10.764;2023-07-08T02:34:19;93604.00;;;17.50;71.27
57248;BME280;55809;46.618;10.764;2023-07-08T02:37:05;93565.81;;;17.18;71.24
57248;BME280;55809;46.618;10.764;2023-07-08T02:39:39;93631.91;;;17.42;71.33
57248;BME280;55809;46.618;10.764;2023-07-08T02:42:12;93664.84;;;17.51;71.16
57248;BME280;55809;46.618;10.764;2023-07-08T02:44:41;93671.31;;;17.41;72.02
57248;BME280;55809;46.618;10.764;2023-07-08T02:47:08;93632.06;;;17.18;72.31
57248;BME280;55809;46.618;10.764;2023-07-08T02:49:34;93643.22;;;17.24;72.32
57248;BME280;55809;46.618;10.764;2023-07-08T02:52:01;93629.31;;;17.18;72.65
57248;BME280;55809;46.618;10.764;2023-07-08T02:54:28;93653.38;;;17.40;73.35
57248;BME280;55809;46.618;10.764;2023-07-08T02:56:57;93671.41;;;17.70;72.62
57248;BME280;55809;46.618;10.764;2023-07-08T02:59:32;93640.13;;;17.58;71.41
57248;BME280;55809;46.618;10.764;2023-07-08T03:02:43;93665.13;;;17.73;70.56
57248;BME280;55809;46.618;10.764;2023-07-08T03:05:16;93643.03;;;17.51;70.21
57248;BME280;55809;46.618;10.764;2023-07-08T03:08:02;93576.84;;;17.10;69.69
57248;BME280;55809;46.618;10.764;2023-07-08T03:11:06;93654.09;;;17.60;69.37
57248;BME280;55809;46.618;10.764;2023-07-08T03:14:24;93651.44;;;17.56;69.48
57248;BME280;55809;46.618;10.764;2023-07-08T03:17:16;93653.84;;;17.54;69.52
57248;BME280;55809;46.618;10.764;2023-07-08T03:19:51;93638.81;;;17.46;69.23
57248;BME280;55809;46.618;10.764;2023-07-08T03:22:26;93650.50;;;17.63;69.13
57248;BME280;55809;46.618;10.764;2023-07-08T03:25:13;93650.88;;;17.65;68.67
57248;BME280;55809;46.618;10.764;2023-07-08T03:28:18;93651.13;;;17.71;68.17
57248;BME280;55809;46.618;10.764;2023-07-08T03:30:54;93656.59;;;17.71;68.00
57248;BME280;55809;46.618;10.764;2023-07-08T03:33:41;93603.50;;;17.39;67.47
57248;BME280;55809;46.618;10.764;2023-07-08T03:36:26;93592.75;;;17.32;67.32
57248;BME280;55809;46.618;10.764;2023-07-08T03:39:31;93649.34;;;17.64;67.41
57248;BME280;55809;46.618;10.764;2023-07-08T03:42:34;93653.78;;;17.58;67.34
57248;BME280;55809;46.618;10.764;2023-07-08T03:45:17;93596.06;;;17.23;67.32
57248;BME280;55809;46.618;10.764;2023-07-08T03:48:12;93590.69;;;17.20;67.54
57248;BME280;55809;46.618;10.764;2023-07-08T03:51:00;93673.31;;;17.73;67.66
57248;BME280;55809;46.618;10.764;2023-07-08T04:00:26;93625.69;;;17.41;68.35
57248;BME280;55809;46.618;10.764;2023-07-08T04:06:29;93684.28;;;17.53;69.39
57248;BME280;55809;46.618;10.764;2023-07-08T04:08:58;93683.53;;;17.52;69.57
57248;BME280;55809;46.618;10.764;2023-07-08T04:11:28;93690.94;;;17.52;69.56
57248;BME280;55809;46.618;10.764;2023-07-08T04:13:55;93669.00;;;17.39;69.64
57248;BME280;55809;46.618;10.764;2023-07-08T04:16:25;93657.13;;;17.29;69.70
57248;BME280;55809;46.618;10.764;2023-07-08T04:18:55;93653.19;;;17.30;69.86
57248;BME280;55809;46.618;10.764;2023-07-08T04:21:23;93666.53;;;17.45;69.27
57248;BME280;55809;46.618;10.764;2023-07-08T04:23:51;93640.16;;;17.22;69.15
57248;BME280;55809;46.618;10.764;2023-07-08T04:26:18;93662.34;;;17.40;69.21
57248;BME280;55809;46.618;10.764;2023-07-08T04:28:45;93603.72;;;17.12;69.66
57248;BME280;55809;46.618;10.764;2023-07-08T04:31:12;93660.00;;;17.58;69.88
57248;BME280;55809;46.618;10.764;2023-07-08T04:33:42;93659.94;;;17.78;69.02
57248;BME280;55809;46.618;10.764;2023-07-08T04:36:21;93658.56;;;17.87;69.00
57248;BME280;55809;46.618;10.764;2023-07-08T04:39:29;93657.13;;;17.98;69.22
57248;BME280;55809;46.618;10.764;2023-07-08T04:45:58;93630.38;;;17.73;68.16
57248;BME280;55809;46.618;10.764;2023-07-08T04:48:25;93662.00;;;17.91;68.08
57248;BME280;55809;46.618;10.764;2023-07-08T04:50:54;93633.38;;;17.63;68.14
57248;BME280;55809;46.618;10.764;2023-07-08T04:53:21;93647.50;;;17.77;68.38
57248;BME280;55809;46.618;10.764;2023-07-08T04:55:51;93667.47;;;17.91;68.85
57248;BME280;55809;46.618;10.764;2023-07-08T04:58:19;93663.13;;;17.93;68.98
57248;BME280;55809;46.618;10.764;2023-07-08T05:00:46;93627.25;;;17.75;68.46
57248;BME280;55809;46.618;10.764;2023-07-08T05:03:12;93655.78;;;18.07;68.47
57248;BME280;55809;46.618;10.764;2023-07-08T05:05:40;93641.22;;;18.10;67.73
57248;BME280;55809;46.618;10.764;2023-07-08T05:08:20;93646.06;;;18.35;67.50
57248;BME280;55809;46.618;10.764;2023-07-08T05:11:16;93628.84;;;18.21;67.55
57248;BME280;55809;46.618;10.764;2023-07-08T05:14:19;93616.31;;;18.08;67.63
57248;BME280;55809;46.618;10.764;2023-07-08T05:17:03;93652.22;;;18.22;67.94
57248;BME280;55809;46.618;10.764;2023-07-08T05:19:46;93631.59;;;18.05;68.53
57248;BME280;55809;46.618;10.764;2023-07-08T05:22:16;93638.84;;;18.12;69.10
57248;BME280;55809;46.618;10.764;2023-07-08T05:24:45;93646.19;;;18.15;69.33
57248;BME280;55809;46.618;10.764;2023-07-08T05:27:12;93650.69;;;18.21;69.38
57248;BME280;55809;46.618;10.764;2023-07-08T05:29:40;93645.16;;;18.25;70.16
57248;BME280;55809;46.618;10.764;2023-07-08T05:32:08;93634.41;;;18.18;70.27
57248;BME280;55809;46.618;10.764;2023-07-08T05:34:35;93645.06;;;18.28;70.80
57248;BME280;55809;46.618;10.764;2023-07-08T05:37:02;93634.88;;;18.29;70.67
57248;BME280;55809;46.618;10.764;2023-07-08T05:39:29;93647.84;;;18.41;71.22
57248;BME280;55809;46.618;10.764;2023-07-08T05:41:58;93621.66;;;18.27;70.94
57248;BME280;55809;46.618;10.764;2023-07-08T05:44:25;93645.78;;;18.45;71.46
57248;BME280;55809;46.618;10.764;2023-07-08T05:46:52;93648.50;;;18.45;71.82
57248;BME280;55809;46.618;10.764;2023-07-08T05:49:19;93644.91;;;18.48;72.57
57248;BME280;55809;46.618;10.764;2023-07-08T05:51:47;93639.69;;;18.54;72.25
57248;BME280;55809;46.618;10.764;2023-07-08T05:54:14;93643.00;;;18.62;72.06
57248;BME280;55809;46.618;10.764;2023-07-08T05:56:41;93642.38;;;18.70;70.74
57248;BME280;55809;46.618;10.764;2023-07-08T05:59:11;93618.03;;;18.76;69.44
57248;BME280;55809;46.618;10.764;2023-07-08T06:01:38;93642.97;;;19.20;67.84
57248;BME280;55809;46.618;10.764;2023-07-08T06:04:05;93649.97;;;19.34;66.45
57248;BME280;55809;46.618;10.764;2023-07-08T06:06:32;93630.16;;;19.17;66.47
57248;BME280;55809;46.618;10.764;2023-07-08T06:08:58;93634.31;;;19.21;65.88
57248;BME280;55809;46.618;10.764;2023-07-08T06:11:26;93621.38;;;19.09;65.95
57248;BME280;55809;46.618;10.764;2023-07-08T06:13:53;93629.28;;;19.20;65.88
57248;BME280;55809;46.618;10.764;2023-07-08T06:16:21;93636.31;;;19.47;65.13
57248;BME280;55809;46.618;10.764;2023-07-08T06:18:48;93628.53;;;19.58;64.69
57248;BME280;55809;46.618;10.764;2023-07-08T06:21:15;93628.00;;;19.76;63.83
57248;BME280;55809;46.618;10.764;2023-07-08T06:23:42;93644.09;;;19.86;63.57
57248;BME280;55809;46.618;10.764;2023-07-08T06:26:09;93639.47;;;19.96;62.96
57248;BME280;55809;46.618;10.764;2023-07-08T06:28:36;93640.56;;;19.99;62.73
57248;BME280;55809;46.618;10.764;2023-07-08T06:31:03;93614.25;;;20.01;62.25
57248;BME280;55809;46.618;10.764;2023-07-08T06:33:31;93622.13;;;20.12;62.27
57248;BME280;55809;46.618;10.764;2023-07-08T06:35:58;93618.47;;;20.28;62.32
57248;BME280;55809;46.618;10.764;2023-07-08T06:38:25;93634.16;;;20.62;61.32
57248;BME280;55809;46.618;10.764;2023-07-08T06:40:52;93628.28;;;20.73;61.33
57248;BME280;55809;46.618;10.764;2023-07-08T06:43:19;93626.50;;;20.79;60.79
57248;BME280;55809;46.618;10.764;2023-07-08T06:45:46;93600.56;;;21.24;59.18
57248;BME280;55809;46.618;10.764;2023-07-08T06:48:13;93632.59;;;22.08;57.17
57248;BME280;55809;46.618;10.764;2023-07-08T06:50:45;93632.09;;;22.59;55.88
57248;BME280;55809;46.618;10.764;2023-07-08T06:53:12;93628.41;;;23.08;54.46
57248;BME280;55809;46.618;10.764;2023-07-08T06:55:39;93608.59;;;23.46;52.96
57248;BME280;55809;46.618;10.764;2023-07-08T06:58:06;93614.78;;;23.98;51.80
57248;BME280;55809;46.618;10.764;2023-07-08T07:00:33;93615.81;;;24.34;50.98
57248;BME280;55809;46.618;10.764;2023-07-08T07:03:00;93608.00;;;24.56;49.59
57248;BME280;55809;46.618;10.764;2023-07-08T07:05:27;93607.97;;;24.95;48.37
57248;BME280;55809;46.618;10.764;2023-07-08T07:07:56;93590.59;;;25.19;47.00
57248;BME280;55809;46.618;10.764;2023-07-08T07:10:23;93596.00;;;25.13;46.89
57248;BME280;55809;46.618;10.764;2023-07-08T07:12:50;93592.56;;;25.33;46.69
57248;BME280;55809;46.618;10.764;2023-07-08T07:15:17;93586.81;;;25.66;44.50
57248;BME280;55809;46.618;10.764;2023-07-08T07:17:44;93588.94;;;26.07;44.39
57248;BME280;55809;46.618;10.764;2023-07-08T07:20:12;93589.28;;;26.35;44.50
57248;BME280;55809;46.618;10.764;2023-07-08T07:22:39;93580.59;;;26.62;43.22
57248;BME280;55809;46.618;10.764;2023-07-08T07:25:09;93559.09;;;26.78;41.89
57248;BME280;55809;46.618;10.764;2023-07-08T07:27:36;93583.81;;;27.07;41.22
57248;BME280;55809;46.618;10.764;2023-07-08T07:30:04;93580.50;;;27.03;42.16
57248;BME280;55809;46.618;10.764;2023-07-08T07:32:31;93561.94;;;27.09;42.25
57248;BME280;55809;46.618;10.764;2023-07-08T07:34:59;93578.66;;;27.21;41.85
57248;BME280;55809;46.618;10.764;2023-07-08T07:37:26;93567.88;;;27.23;42.75
57248;BME280;55809;46.618;10.764;2023-07-08T07:39:53;93562.47;;;27.40;42.51
57248;BME280;55809;46.618;10.764;2023-07-08T07:42:21;93569.09;;;27.48;41.56
57248;BME280;55809;46.618;10.764;2023-07-08T07:44:49;93559.81;;;27.56;42.13
57248;BME280;55809;46.618;10.764;2023-07-08T07:47:15;93569.44;;;27.98;42.57
57248;BME280;55809;46.618;10.764;2023-07-08T07:49:43;93568.22;;;28.05;41.97
57248;BME280;55809;46.618;10.764;2023-07-08T07:52:10;93563.63;;;27.96;41.53
57248;BME280;55809;46.618;10.764;2023-07-08T07:54:37;93567.06;;;27.80;42.47
57248;BME280;55809;46.618;10.764;2023-07-08T07:57:04;93559.28;;;27.84;43.73
57248;BME280;55809;46.618;10.764;2023-07-08T07:59:33;93559.06;;;27.88;43.92
57248;BME280;55809;46.618;10.764;2023-07-08T08:02:00;93562.19;;;28.12;42.83
57248;BME280;55809;46.618;10.764;2023-07-08T08:04:28;93552.97;;;28.32;42.74
57248;BME280;55809;46.618;10.764;2023-07-08T08:06:55;93541.81;;;28.21;42.60
57248;BME280;55809;46.618;10.764;2023-07-08T08:09:22;93521.69;;;28.37;42.89
57248;BME280;55809;46.618;10.764;2023-07-08T08:11:49;93537.06;;;28.33;42.18
57248;BME280;55809;46.618;10.764;2023-07-08T08:14:17;93534.34;;;28.49;43.38
57248;BME280;55809;46.618;10.764;2023-07-08T08:16:45;93534.41;;;28.61;44.00
57248;BME280;55809;46.618;10.764;2023-07-08T08:19:12;93528.16;;;28.83;43.41
57248;BME280;55809;46.618;10.764;2023-07-08T08:21:39;93522.53;;;28.66;44.63
57248;BME280;55809;46.618;10.764;2023-07-08T08:24:06;93520.66;;;28.35;45.97
57248;BME280;55809;46.618;10.764;2023-07-08T08:26:33;93510.75;;;28.17;44.15
57248;BME280;55809;46.618;10.764;2023-07-08T08:29:01;93519.94;;;27.86;44.59
57248;BME280;55809;46.618;10.764;2023-07-08T08:31:28;93515.06;;;27.75;44.96
57248;BME280;55809;46.618;10.764;2023-07-08T08:33:58;93486.66;;;28.40;44.78
57248;BME280;55809;46.618;10.764;2023-07-08T08:36:25;93507.09;;;28.48;44.42
57248;BME280;55809;46.618;10.764;2023-07-08T08:38:52;93503.16;;;28.83;42.31
57248;BME280;55809;46.618;10.764;2023-07-08T08:41:21;93499.59;;;28.82;41.79
57248;BME280;55809;46.618;10.764;2023-07-08T08:43:52;93501.22;;;28.35;44.17
57248;BME280;55809;46.618;10.764;2023-07-08T08:46:25;93489.88;;;27.78;43.78
57248;BME280;55809;46.618;10.764;2023-07-08T08:49:05;93490.66;;;27.42;44.68
57248;BME280;55809;46.618;10.764;2023-07-08T08:51:36;93497.00;;;26.90;47.19
57248;BME280;55809;46.618;10.764;2023-07-08T08:54:03;93487.63;;;26.82;47.61
57248;BME280;55809;46.618;10.764;2023-07-08T08:56:43;93496.56;;;26.97;46.95
57248;BME280;55809;46.618;10.764;2023-07-08T08:59:22;93496.28;;;27.96;46.00
57248;BME280;55809;46.618;10.764;2023-07-08T09:01:53;93488.94;;;28.52;44.49
57248;BME280;55809;46.618;10.764;2023-07-08T09:04:25;93481.59;;;28.44;42.89
57248;BME280;55809;46.618;10.764;2023-07-08T09:07:00;93487.41;;;28.40;43.41
57248;BME280;55809;46.618;10.764;2023-07-08T09:09:32;93483.91;;;27.97;43.96
57248;BME280;55809;46.618;10.764;2023-07-08T09:12:03;93489.06;;;27.72;45.24
57248;BME280;55809;46.618;10.764;2023-07-08T09:14:33;93485.41;;;28.58;43.34
57248;BME280;55809;46.618;10.764;2023-07-08T09:17:13;93478.19;;;29.22;42.96
57248;BME280;55809;46.618;10.764;2023-07-08T09:19:45;93478.22;;;28.23;44.20
57248;BME280;55809;46.618;10.764;2023-07-08T09:22:20;93490.56;;;27.73;45.07
57248;BME280;55809;46.618;10.764;2023-07-08T09:24:50;93475.50;;;27.80;45.05
57248;BME280;55809;46.618;10.764;2023-07-08T09:27:18;93482.22;;;28.11;44.29
57248;BME280;55809;46.618;10.764;2023-07-08T09:29:46;93475.69;;;28.14;45.97
57248;BME280;55809;46.618;10.764;2023-07-08T09:32:18;93480.16;;;28.77;44.13
57248;BME280;55809;46.618;10.764;2023-07-08T09:34:50;93465.03;;;29.17;44.43
57248;BME280;55809;46.618;10.764;2023-07-08T09:37:23;93466.53;;;29.40;44.54
57248;BME280;55809;46.618;10.764;2023-07-08T09:39:51;93483.72;;;29.33;41.60
57248;BME280;55809;46.618;10.764;2023-07-08T09:42:19;93471.06;;;29.60;42.08
57248;BME280;55809;46.618;10.764;2023-07-08T09:44:47;93466.75;;;29.76;42.28
57248;BME280;55809;46.618;10.764;2023-07-08T09:47:21;93459.75;;;30.17;42.64
57248;BME280;55809;46.618;10.764;2023-07-08T09:49:51;93474.41;;;30.34;41.35
57248;BME280;55809;46.618;10.764;2023-07-08T09:52:18;93449.25;;;30.45;41.05
57248;BME280;55809;46.618;10.764;2023-07-08T09:54:46;93465.81;;;30.26;40.10
57248;BME280;55809;46.618;10.764;2023-07-08T09:57:30;93460.25;;;30.26;40.50
57248;BME280;55809;46.618;10.764;2023-07-08T10:00:00;93465.13;;;29.98;41.74
57248;BME280;55809;46.618;10.764;2023-07-08T10:02:30;93459.19;;;30.35;42.53
57248;BME280;55809;46.618;10.764;2023-07-08T10:05:03;93431.16;;;30.16;41.39
57248;BME280;55809;46.618;10.764;2023-07-08T10:07:34;93443.03;;;29.02;41.95
57248;BME280;55809;46.618;10.764;2023-07-08T10:10:06;93445.66;;;28.29;46.47
57248;BME280;55809;46.618;10.764;2023-07-08T10:12:37;93462.69;;;28.65;45.57
57248;BME280;55809;46.618;10.764;2023-07-08T10:15:12;93463.19;;;28.52;45.32
57248;BME280;55809;46.618;10.764;2023-07-08T10:17:41;93428.50;;;26.90;47.47
57248;BME280;55809;46.618;10.764;2023-07-08T10:20:13;93456.50;;;26.40;49.55
57248;BME280;55809;46.618;10.764;2023-07-08T10:22:47;93460.09;;;26.00;48.80
57248;BME280;55809;46.618;10.764;2023-07-08T10:25:25;93439.84;;;25.53;53.09
57248;BME280;55809;46.618;10.764;2023-07-08T10:27:59;93447.47;;;25.79;52.15
57248;BME280;55809;46.618;10.764;2023-07-08T10:30:34;93450.00;;;25.97;52.20
57248;BME280;55809;46.618;10.764;2023-07-08T10:33:17;93454.06;;;26.02;53.73
57248;BME280;55809;46.618;10.764;2023-07-08T10:35:54;93431.34;;;25.57;51.93
57248;BME280;55809;46.618;10.764;2023-07-08T10:38:42;93448.66;;;25.72;51.32
57248;BME280;55809;46.618;10.764;2023-07-08T10:41:25;93453.56;;;25.83;51.86
57248;BME280;55809;46.618;10.764;2023-07-08T10:44:05;93440.09;;;25.70;49.00
57248;BME280;55809;46.618;10.764;2023-07-08T10:46:46;93443.00;;;26.02;50.10
57248;BME280;55809;46.618;10.764;2023-07-08T10:49:32;93444.53;;;26.29;49.51
57248;BME280;55809;46.618;10.764;2023-07-08T10:52:20;93395.16;;;25.55;50.76
57248;BME280;55809;46.618;10.764;2023-07-08T10:55:06;93434.25;;;26.55;50.18
57248;BME280;55809;46.618;10.764;2023-07-08T10:57:55;93401.25;;;26.52;49.62
57248;BME280;55809;46.618;10.764;2023-07-08T11:00:43;93431.94;;;26.48;48.26
57248;BME280;55809;46.618;10.764;2023-07-08T11:06:11;93422.56;;;25.17;52.67
57248;BME280;55809;46.618;10.764;2023-07-08T11:08:44;93434.16;;;25.07;51.41
57248;BME280;55809;46.618;10.764;2023-07-08T11:11:23;93418.91;;;25.11;53.32
57248;BME280;55809;46.618;10.764;2023-07-08T11:13:59;93420.59;;;25.23;53.11
57248;BME280;55809;46.618;10.764;2023-07-08T11:16:33;93412.91;;;25.27;53.96
57248;BME280;55809;46.618;10.764;2023-07-08T11:19:06;93418.09;;;25.40;53.21
57248;BME280;55809;46.618;10.764;2023-07-08T11:21:43;93412.22;;;25.53;52.41
57248;BME280;55809;46.618;10.764;2023-07-08T11:24:26;93412.38;;;25.64;52.83
57248;BME280;55809;46.618;10.764;2023-07-08T11:27:01;93408.84;;;25.64;52.97
57248;BME280;55809;46.618;10.764;2023-07-08T11:29:36;93409.59;;;25.64;52.78
57248;BME280;55809;46.618;10.764;2023-07-08T11:32:06;93406.13;;;25.69;49.94
57248;BME280;55809;46.618;10.764;2023-07-08T11:34:43;93410.69;;;25.72;51.29
57248;BME280;55809;46.618;10.764;2023-07-08T11:37:13;93403.53;;;25.60;49.84
57248;BME280;55809;46.618;10.764;2023-07-08T11:39:44;93403.19;;;25.93;51.76
57248;BME280;55809;46.618;10.764;2023-07-08T11:42:19;93404.75;;;26.00;51.82
57248;BME280;55809;46.618;10.764;2023-07-08T11:44:51;93412.97;;;26.41;50.94
57248;BME280;55809;46.618;10.764;2023-07-08T11:47:26;93409.72;;;26.42;50.43
57248;BME280;55809;46.618;10.764;2023-07-08T11:50:00;93405.41;;;26.15;50.24
57248;BME280;55809;46.618;10.764;2023-07-08T11:52:29;93408.50;;;25.97;52.17
57248;BME280;55809;46.618;10.764;2023-07-08T11:55:22;93403.97;;;25.79;51.22
57248;BME280;55809;46.618;10.764;2023-07-08T11:57:55;93407.16;;;25.72;50.56
57248;BME280;55809;46.618;10.764;2023-07-08T12:00:25;93404.41;;;25.52;51.73
57248;BME280;55809;46.618;10.764;2023-07-08T12:02:54;93407.78;;;25.41;52.94
57248;BME280;55809;46.618;10.764;2023-07-08T12:05:33;93393.00;;;25.44;54.25
57248;BME280;55809;46.618;10.764;2023-07-08T12:08:03;93397.34;;;25.30;51.34
57248;BME280;55809;46.618;10.764;2023-07-08T12:10:45;93393.56;;;25.27;52.14
57248;BME280;55809;46.618;10.764;2023-07-08T12:13:15;93391.63;;;25.34;51.35
57248;BME280;55809;46.618;10.764;2023-07-08T12:15:43;93393.34;;;25.31;51.52
57248;BME280;55809;46.618;10.764;2023-07-08T12:18:13;93391.22;;;25.41;52.24
57248;BME280;55809;46.618;10.764;2023-07-08T12:20:45;93392.31;;;25.49;52.28
57248;BME280;55809;46.618;10.764;2023-07-08T12:23:18;93390.25;;;25.44;52.05
57248;BME280;55809;46.618;10.764;2023-07-08T12:25:47;93391.75;;;25.45;51.13
57248;BME280;55809;46.618;10.764;2023-07-08T12:28:15;93393.69;;;25.59;52.52
57248;BME280;55809;46.618;10.764;2023-07-08T12:30:44;93383.00;;;25.87;50.87
57248;BME280;55809;46.618;10.764;2023-07-08T12:33:14;93382.19;;;26.07;52.94
57248;BME280;55809;46.618;10.764;2023-07-08T12:35:43;93389.91;;;26.24;48.62
57248;BME280;55809;46.618;10.764;2023-07-08T12:38:25;93367.16;;;26.14;51.96
57248;BME280;55809;46.618;10.764;2023-07-08T12:40:58;93387.91;;;26.24;49.29
57248;BME280;55809;46.618;10.764;2023-07-08T12:43:26;93385.19;;;26.30;49.29
57248;BME280;55809;46.618;10.764;2023-07-08T12:45:53;93379.75;;;26.41;49.58
57248;BME280;55809;46.618;10.764;2023-07-08T12:48:20;93372.41;;;26.38;49.62
57248;BME280;55809;46.618;10.764;2023-07-08T12:50:47;93356.75;;;26.29;49.55
57248;BME280;55809;46.618;10.764;2023-07-08T12:53:15;93371.16;;;26.39;51.83
57248;BME280;55809;46.618;10.764;2023-07-08T12:55:43;93362.00;;;26.27;50.71
57248;BME280;55809;46.618;10.764;2023-07-08T12:58:18;93328.91;;;26.12;51.72
57248;BME280;55809;46.618;10.764;2023-07-08T13:00:46;93357.59;;;26.41;52.40
57248;BME280;55809;46.618;10.764;2023-07-08T13:03:15;93351.41;;;26.52;51.85
57248;BME280;55809;46.618;10.764;2023-07-08T13:05:43;93351.47;;;26.57;52.77
57248;BME280;55809;46.618;10.764;2023-07-08T13:08:11;93350.50;;;26.34;50.45
57248;BME280;55809;46.618;10.764;2023-07-08T13:10:39;93352.81;;;26.41;50.56
57248;BME280;55809;46.618;10.764;2023-07-08T13:13:11;93338.25;;;26.15;51.81
57248;BME280;55809;46.618;10.764;2023-07-08T13:15:42;93332.50;;;25.92;52.38
57248;BME280;55809;46.618;10.764;2023-07-08T13:18:14;93332.69;;;25.42;53.92
57248;BME280;55809;46.618;10.764;2023-07-08T13:20:52;93329.59;;;25.14;53.64
57248;BME280;55809;46.618;10.764;2023-07-08T13:23:19;93313.94;;;25.11;56.76
57248;BME280;55809;46.618;10.764;2023-07-08T13:25:47;93332.22;;;25.44;54.78
57248;BME280;55809;46.618;10.764;2023-07-08T13:28:17;93333.00;;;25.50;54.13
57248;BME280;55809;46.618;10.764;2023-07-08T13:30:52;93278.03;;;25.11;53.68
57248;BME280;55809;46.618;10.764;2023-07-08T13:33:20;93324.31;;;25.37;51.46
57248;BME280;55809;46.618;10.764;2023-07-08T13:35:48;93332.13;;;25.59;53.72
57248;BME280;55809;46.618;10.764;2023-07-08T13:38:17;93311.25;;;25.58;53.34